createdAt,value
2023-07-30T00:02:10.777Z,1.30
2023-07-30T00:05:37.097Z,1.20
2023-07-30T00:09:33.379Z,1.30
2023-07-30T00:12:58.352Z,1.30
2023-07-30T00:16:35.842Z,1.10
2023-07-30T00:20:13.913Z,1.30
2023-07-30T00:23:52.559Z,1.20
2023-07-30T00:27:47.747Z,0.70
2023-07-30T00:31:13.898Z,0.90
2023-07-30T00:34:51.494Z,1.00
2023-07-30T00:38:29.096Z,1.00
2023-07-30T00:42:26.146Z,1.10
2023-07-30T00:45:51.835Z,1.20
2023-07-30T00:49:29.575Z,1.00
2023-07-30T00:53:09.987Z,1.00
2023-07-30T00:56:54.302Z,1.20
2023-07-30T01:00:23.473Z,1.80
2023-07-30T01:04:02.238Z,0.90
2023-07-30T01:07:37.724Z,0.80
2023-07-30T01:11:16.077Z,1.00
2023-07-30T01:14:55.888Z,0.90
2023-07-30T01:18:30.856Z,1.00
2023-07-30T01:22:08.435Z,0.80
2023-07-30T01:25:48.745Z,1.10
2023-07-30T01:29:29.145Z,1.00
2023-07-30T01:33:21.839Z,0.80
2023-07-30T01:36:49.021Z,1.30
2023-07-30T01:40:26.832Z,0.80
2023-07-30T01:44:03.081Z,0.90
2023-07-30T01:47:40.793Z,0.90
2023-07-30T01:51:18.509Z,1.40
2023-07-30T01:55:15.302Z,0.90
2023-07-30T01:58:40.614Z,1.00
2023-07-30T02:02:37.183Z,0.90
2023-07-30T02:06:03.901Z,1.10
2023-07-30T02:09:41.446Z,1.10
2023-07-30T02:13:20.354Z,1.20
2023-07-30T02:16:56.750Z,1.30
2023-07-30T02:20:34.500Z,1.10
2023-07-30T02:24:12.912Z,1.00
2023-07-30T02:27:49.682Z,1.30
2023-07-30T02:31:28.740Z,1.40
2023-07-30T02:35:05.753Z,1.60
2023-07-30T02:38:43.183Z,1.30
2023-07-30T02:42:21.841Z,1.80
2023-07-30T02:46:00.291Z,1.70
2023-07-30T02:49:55.864Z,1.80
2023-07-30T02:53:20.619Z,1.70
2023-07-30T02:56:59.480Z,1.50
2023-07-30T03:00:41.525Z,1.90
2023-07-30T03:04:14.150Z,2.10
2023-07-30T03:08:11.252Z,1.60
2023-07-30T03:11:36.926Z,1.90
2023-07-30T03:15:14.635Z,1.50
2023-07-30T03:18:51.989Z,2.00
2023-07-30T03:22:29.680Z,2.00
2023-07-30T03:26:07.268Z,2.10
2023-07-30T03:29:45.514Z,2.30
2023-07-30T03:33:46.483Z,2.50
2023-07-30T03:37:12.475Z,2.20
2023-07-30T03:40:50.641Z,2.10
2023-07-30T03:44:28.034Z,1.90
2023-07-30T03:48:05.629Z,1.40
2023-07-30T03:51:43.082Z,2.00
2023-07-30T03:55:20.628Z,2.20
2023-07-30T03:58:58.312Z,1.90
2023-07-30T04:02:36.095Z,2.10
2023-07-30T04:06:13.865Z,1.90
2023-07-30T04:09:51.357Z,1.60
2023-07-30T04:13:29.641Z,1.60
2023-07-30T04:17:25.649Z,1.60
2023-07-30T04:20:51.546Z,1.40
2023-07-30T04:24:28.314Z,1.20
2023-07-30T04:28:24.981Z,1.80
2023-07-30T04:31:50.080Z,1.40
2023-07-30T04:35:46.740Z,0.80
2023-07-30T04:39:13.567Z,0.90
2023-07-30T04:42:49.524Z,0.90
2023-07-30T04:46:45.925Z,1.20
2023-07-30T04:50:10.879Z,1.40
2023-07-30T04:53:48.544Z,1.00
2023-07-30T04:57:26.940Z,1.20
2023-07-30T05:01:03.829Z,1.20
2023-07-30T05:05:00.655Z,1.10
2023-07-30T05:08:25.381Z,0.80
2023-07-30T05:12:03.324Z,1.20
2023-07-30T05:15:59.628Z,1.10
2023-07-30T05:19:24.622Z,1.00
2023-07-30T05:23:03.458Z,1.00
2023-07-30T05:26:39.869Z,0.80
2023-07-30T05:30:36.352Z,1.00
2023-07-30T05:34:01.625Z,0.60
2023-07-30T05:37:57.989Z,1.10
2023-07-30T05:41:22.948Z,1.00
2023-07-30T05:45:00.940Z,0.90
2023-07-30T05:48:57.729Z,0.90
2023-07-30T05:52:41.936Z,1.10
2023-07-30T05:56:07.136Z,1.10
2023-07-30T05:59:44.785Z,0.90
2023-07-30T06:03:22.649Z,0.90
2023-07-30T06:07:05.999Z,1.00
2023-07-30T06:10:39.310Z,1.00
2023-07-30T06:14:15.594Z,1.00
2023-07-30T06:17:53.432Z,1.00
2023-07-30T06:21:30.714Z,1.10
2023-07-30T06:25:08.607Z,0.90
2023-07-30T06:28:46.073Z,1.00
2023-07-30T06:32:24.930Z,1.10
2023-07-30T06:36:01.614Z,1.10
2023-07-30T06:39:57.963Z,1.30
2023-07-30T06:43:22.827Z,1.20
2023-07-30T06:47:01.060Z,1.20
2023-07-30T06:50:38.328Z,1.30
2023-07-30T06:54:35.936Z,1.30
2023-07-30T06:58:02.040Z,1.10
2023-07-30T07:01:39.727Z,1.30
2023-07-30T07:05:17.199Z,1.20
2023-07-30T07:08:55.159Z,1.00
2023-07-30T07:12:51.393Z,1.30
2023-07-30T07:16:16.470Z,1.20
2023-07-30T07:19:54.149Z,1.10
2023-07-30T07:23:50.699Z,0.90
2023-07-30T07:27:15.590Z,1.40
2023-07-30T07:30:53.189Z,1.20
2023-07-30T07:34:30.882Z,1.00
2023-07-30T07:38:08.812Z,1.20
2023-07-30T07:41:46.225Z,1.20
2023-07-30T07:45:42.850Z,1.30
2023-07-30T07:49:09.749Z,1.20
2023-07-30T07:52:45.006Z,1.20
2023-07-30T07:56:22.848Z,1.30
2023-07-30T08:00:00.531Z,1.20
2023-07-30T08:03:38.264Z,1.30
2023-07-30T08:07:16.026Z,1.20
2023-07-30T08:10:54.273Z,1.10
2023-07-30T08:14:32.393Z,1.00
2023-07-30T08:18:09.622Z,1.20
2023-07-30T08:21:46.714Z,1.40
2023-07-30T08:25:24.275Z,1.40
2023-07-30T08:29:01.991Z,1.50
2023-07-30T08:32:58.925Z,1.10
2023-07-30T08:36:24.227Z,1.20
2023-07-30T08:40:01.635Z,1.20
2023-07-30T08:43:39.563Z,1.20
2023-07-30T08:47:36.422Z,1.30
2023-07-30T08:51:22.352Z,1.20
2023-07-30T08:54:51.329Z,1.00
2023-07-30T08:58:28.197Z,1.00
2023-07-30T09:02:34.013Z,1.10
2023-07-30T09:05:59.183Z,1.20
2023-07-30T09:09:56.084Z,1.10
2023-07-30T09:13:24.756Z,1.10
2023-07-30T09:16:59.562Z,1.10
2023-07-30T09:20:40.712Z,1.10
2023-07-30T09:24:22.727Z,1.20
2023-07-30T09:28:10.769Z,1.20
2023-07-30T09:31:56.111Z,1.50
2023-07-30T09:35:40.146Z,1.20
2023-07-30T09:39:05.080Z,1.40
2023-07-30T09:42:49.218Z,0.90
2023-07-30T09:46:20.374Z,1.30
2023-07-30T09:49:58.025Z,1.10
2023-07-30T09:53:36.256Z,1.20
2023-07-30T09:57:13.240Z,1.10
2023-07-30T10:00:51.896Z,1.20
2023-07-30T10:04:50.537Z,1.20
2023-07-30T10:08:22.772Z,1.30
2023-07-30T10:12:25.166Z,1.30
2023-07-30T10:16:12.145Z,1.00
2023-07-30T10:19:37.349Z,1.10
2023-07-30T10:23:33.653Z,1.20
2023-07-30T10:27:06.894Z,1.20
2023-07-30T10:31:03.851Z,1.20
2023-07-30T10:34:47.953Z,1.20
2023-07-30T10:38:31.787Z,1.10
2023-07-30T10:42:01.831Z,1.10
2023-07-30T10:45:34.812Z,1.10
2023-07-30T10:49:13.306Z,1.20
2023-07-30T10:52:49.884Z,1.40
2023-07-30T10:56:46.819Z,1.20
2023-07-30T11:00:12.990Z,1.10
2023-07-30T11:04:15.772Z,1.10
2023-07-30T11:07:50.490Z,1.20
2023-07-30T11:11:42.979Z,1.10
2023-07-30T11:15:08.264Z,1.20
2023-07-30T11:18:47.693Z,1.00
2023-07-30T11:22:34.240Z,1.10
2023-07-30T11:26:20.478Z,1.30
2023-07-30T11:29:55.651Z,1.20
2023-07-30T11:33:23.610Z,1.30
2023-07-30T11:37:01.124Z,1.10
2023-07-30T11:40:58.195Z,1.30
2023-07-30T11:44:41.250Z,1.00
2023-07-30T11:48:26.325Z,1.00
2023-07-30T11:51:52.555Z,1.20
2023-07-30T11:55:39.373Z,1.00
2023-07-30T11:59:08.601Z,1.30
2023-07-30T12:02:44.465Z,1.20
2023-07-30T12:06:43.617Z,1.20
2023-07-30T12:10:27.358Z,1.40
2023-07-30T12:13:52.623Z,1.70
2023-07-30T12:17:30.145Z,1.70
2023-07-30T12:21:26.270Z,1.90
2023-07-30T12:24:50.951Z,2.00
2023-07-30T12:28:28.671Z,1.80
2023-07-30T12:32:28.491Z,1.50
2023-07-30T12:35:54.303Z,1.50
2023-07-30T12:39:30.855Z,1.30
2023-07-30T12:43:10.219Z,1.30
2023-07-30T12:46:46.105Z,1.10
2023-07-30T12:50:42.854Z,1.20
2023-07-30T12:54:26.300Z,1.60
2023-07-30T12:57:51.238Z,1.30
2023-07-30T13:01:29.179Z,1.40
2023-07-30T13:05:07.016Z,1.10
2023-07-30T13:08:44.297Z,1.50
2023-07-30T13:12:41.075Z,1.20
2023-07-30T13:16:24.763Z,1.30
2023-07-30T13:20:08.854Z,1.20
2023-07-30T13:23:34.045Z,1.20
2023-07-30T13:27:11.929Z,1.30
2023-07-30T13:30:52.012Z,1.20
2023-07-30T13:34:26.981Z,1.40
2023-07-30T13:38:25.829Z,1.60
2023-07-30T13:42:09.948Z,1.20
2023-07-30T13:45:35.073Z,1.30
2023-07-30T13:49:31.584Z,1.30
2023-07-30T13:53:15.869Z,1.30
2023-07-30T13:57:03.871Z,1.20
2023-07-30T14:00:48.115Z,1.10
2023-07-30T14:04:12.814Z,1.10
2023-07-30T14:08:09.437Z,1.20
2023-07-30T14:11:34.112Z,1.20
2023-07-30T14:15:32.076Z,1.50
2023-07-30T14:18:57.276Z,1.10
2023-07-30T14:22:54.581Z,1.10
2023-07-30T14:26:19.750Z,1.20
2023-07-30T14:29:57.577Z,1.10
2023-07-30T14:33:35.341Z,1.30
2023-07-30T14:37:32.235Z,1.30
2023-07-30T14:40:57.444Z,1.20
2023-07-30T14:44:35.990Z,1.20
2023-07-30T14:48:12.884Z,1.40
2023-07-30T14:52:09.484Z,1.20
2023-07-30T14:55:34.544Z,1.30
2023-07-30T14:59:12.203Z,1.10
2023-07-30T15:02:50.290Z,1.10
2023-07-30T15:06:32.660Z,1.30
2023-07-30T15:10:05.934Z,1.30
2023-07-30T15:14:01.823Z,1.10
2023-07-30T15:17:26.861Z,1.40
2023-07-30T15:21:04.877Z,1.20
2023-07-30T15:25:01.566Z,1.30
2023-07-30T15:28:26.886Z,1.40
2023-07-30T15:32:04.988Z,1.50
2023-07-30T15:35:41.990Z,1.50
2023-07-30T15:39:38.515Z,1.90
2023-07-30T15:43:04.640Z,1.60
2023-07-30T15:46:41.401Z,1.30
2023-07-30T15:50:18.877Z,1.40
2023-07-30T15:53:56.704Z,1.40
2023-07-30T15:57:34.292Z,1.20
2023-07-30T16:01:31.403Z,1.60
2023-07-30T16:04:56.292Z,1.80
2023-07-30T16:08:34.890Z,1.80
2023-07-30T16:12:13.712Z,1.20
2023-07-30T16:15:49.150Z,1.60
2023-07-30T16:19:26.972Z,1.80
2023-07-30T16:23:05.366Z,2.80
2023-07-30T16:26:42.892Z,1.60
2023-07-30T16:30:19.856Z,1.90
2023-07-30T16:33:57.580Z,1.50
2023-07-30T16:37:35.294Z,1.80
2023-07-30T16:41:12.917Z,1.40
2023-07-30T16:44:52.348Z,2.00
2023-07-30T16:48:28.259Z,1.90
2023-07-30T16:52:24.854Z,1.60
2023-07-30T16:55:49.754Z,1.50
2023-07-30T16:59:27.361Z,1.10
2023-07-30T17:03:08.121Z,0.90
2023-07-30T17:06:42.847Z,0.70
2023-07-30T17:10:40.568Z,0.50
2023-07-30T17:14:05.487Z,0.70
2023-07-30T17:18:02.579Z,0.70
2023-07-30T17:21:27.717Z,0.60
2023-07-30T17:25:05.850Z,0.50
2023-07-30T17:28:42.801Z,0.60
2023-07-30T17:32:20.755Z,0.40
2023-07-30T17:36:03.010Z,0.60
2023-07-30T17:39:37.100Z,0.80
2023-07-30T17:43:14.738Z,0.50
2023-07-30T17:46:51.243Z,0.90
2023-07-30T17:50:32.277Z,3.30
2023-07-30T17:54:06.681Z,0.80
2023-07-30T17:57:44.206Z,1.00
2023-07-30T18:01:40.876Z,0.80
2023-07-30T18:05:06.171Z,0.60
2023-07-30T18:09:03.679Z,1.40
2023-07-30T18:12:28.655Z,1.00
2023-07-30T18:16:24.982Z,0.80
2023-07-30T18:19:49.959Z,1.30
2023-07-30T18:23:27.756Z,0.70
2023-07-30T18:27:05.700Z,1.00
2023-07-30T18:30:43.060Z,1.40
2023-07-30T18:34:39.559Z,0.90
2023-07-30T18:38:05.224Z,1.40
2023-07-30T18:42:01.131Z,1.70
2023-07-30T18:45:48.079Z,1.90
2023-07-30T18:49:32.603Z,1.70
2023-07-30T18:52:57.557Z,1.90
2023-07-30T18:56:35.044Z,1.80
2023-07-30T19:00:13.496Z,1.50
2023-07-30T19:04:09.458Z,1.80
2023-07-30T19:07:53.574Z,1.40
2023-07-30T19:11:37.565Z,1.70
2023-07-30T19:15:22.537Z,1.00
2023-07-30T19:18:47.187Z,1.30
2023-07-30T19:22:24.982Z,1.10
2023-07-30T19:26:02.709Z,3.10
2023-07-30T19:29:40.188Z,1.70
2023-07-30T19:33:39.478Z,1.80
2023-07-30T19:37:04.751Z,1.90
2023-07-30T19:40:41.934Z,1.60
2023-07-30T19:44:38.983Z,1.50
2023-07-30T19:48:23.858Z,1.30
2023-07-30T19:52:08.467Z,1.10
2023-07-30T19:55:52.042Z,1.20
2023-07-30T19:59:35.675Z,2.20
2023-07-30T20:03:19.908Z,1.50
2023-07-30T20:06:45.192Z,1.60
2023-07-30T20:10:22.578Z,1.50
2023-07-30T20:14:00.396Z,1.90
2023-07-30T20:17:39.977Z,1.90
2023-07-30T20:21:34.579Z,3.30
2023-07-30T20:24:59.329Z,2.90
2023-07-30T20:28:36.991Z,2.80
2023-07-30T20:32:33.524Z,2.90
2023-07-30T20:35:58.450Z,2.90
2023-07-30T20:39:56.707Z,2.90
2023-07-30T20:43:42.292Z,3.00
2023-07-30T20:47:25.893Z,3.00
2023-07-30T20:51:10.677Z,2.80
2023-07-30T20:54:55.679Z,2.40
2023-07-30T20:58:22.604Z,2.80
2023-07-30T21:02:17.225Z,3.20
2023-07-30T21:05:42.703Z,2.30
2023-07-30T21:09:39.130Z,2.50
2023-07-30T21:13:23.015Z,2.60
2023-07-30T21:16:47.831Z,3.00
2023-07-30T21:20:25.668Z,2.50
2023-07-30T21:24:21.982Z,2.70
2023-07-30T21:28:06.888Z,2.40
2023-07-30T21:31:50.488Z,3.30
2023-07-30T21:35:34.130Z,3.20
2023-07-30T21:38:59.232Z,3.50
2023-07-30T21:42:36.906Z,3.90
2023-07-30T21:46:33.583Z,4.10
2023-07-30T21:50:17.366Z,4.70
2023-07-30T21:54:01.489Z,4.60
2023-07-30T21:57:46.867Z,4.20
2023-07-30T22:01:30.627Z,4.30
2023-07-30T22:04:55.779Z,4.40
2023-07-30T22:08:52.122Z,3.80
2023-07-30T22:12:35.929Z,4.30
2023-07-30T22:16:20.171Z,3.70
2023-07-30T22:19:44.815Z,4.20
2023-07-30T22:23:22.440Z,3.80
2023-07-30T22:27:19.166Z,3.50
2023-07-30T22:31:02.943Z,3.00
2023-07-30T22:34:46.408Z,3.60
2023-07-30T22:38:11.690Z,3.80
2023-07-30T22:41:49.146Z,4.20
2023-07-30T22:45:26.771Z,3.50
2023-07-30T22:49:23.579Z,3.40
2023-07-30T22:52:48.362Z,3.90
2023-07-30T22:56:26.105Z,4.50
2023-07-30T23:00:05.895Z,4.30
2023-07-30T23:03:42.470Z,4.40
2023-07-30T23:07:38.068Z,3.70
2023-07-30T23:11:21.483Z,3.30
2023-07-30T23:14:46.658Z,3.50
2023-07-30T23:18:24.851Z,4.00
2023-07-30T23:22:04.875Z,3.80
2023-07-30T23:25:39.603Z,4.20
2023-07-30T23:29:17.235Z,3.80
2023-07-30T23:32:55.179Z,3.50
2023-07-30T23:36:32.627Z,3.80
2023-07-30T23:40:29.246Z,3.20
2023-07-30T23:44:12.912Z,3.40
2023-07-30T23:47:37.744Z,3.20
2023-07-30T23:51:15.590Z,3.40
2023-07-30T23:55:11.976Z,3.20
2023-07-30T23:58:36.816Z,3.30
